sensor_id;sensor_type;location;lat;lon;timestamp;pressure;altitude;pressure_sealevel;temperature;humidity
46127;BME280;31859;55.030;-1.550;2022-08-19T00:00:57;99932.61;;;16.81;100.00
46127;BME280;31859;55.030;-1.550;2022-08-19T00:03:25;99933.82;;;16.56;100.00
46127;BME280;31859;55.030;-1.550;2022-08-19T00:05:52;99942.35;;;15.25;100.00
46127;BME280;31859;55.030;-1.550;2022-08-19T00:08:19;99935.69;;;15.77;100.00
46127;BME280;31859;55.030;-1.550;2022-08-19T00:10:46;99934.08;;;15.40;100.00
46127;BME280;31859;55.030;-1.550;2022-08-19T00:13:13;99933.37;;;16.08;100.00
46127;BME280;31859;55.030;-1.550;2022-08-19T00:15:41;99947.39;;;15.64;100.00
46127;BME280;31859;55.030;-1.550;2022-08-19T00:18:08;99946.07;;;15.52;100.00
46127;BME280;31859;55.030;-1.550;2022-08-19T00:20:35;99943.17;;;15.77;100.00
46127;BME280;31859;55.030;-1.550;2022-08-19T00:23:03;99945.85;;;15.85;100.00
46127;BME280;31859;55.030;-1.550;2022-08-19T00:25:30;99946.63;;;16.19;100.00
46127;BME280;31859;55.030;-1.550;2022-08-19T00:27:57;99943.18;;;15.94;100.00
46127;BME280;31859;55.030;-1.550;2022-08-19T00:30:24;99941.31;;;16.28;100.00
46127;BME280;31859;55.030;-1.550;2022-08-19T00:32:52;99945.85;;;16.44;100.00
46127;BME280;31859;55.030;-1.550;2022-08-19T00:35:19;99944.74;;;16.43;100.00
46127;BME280;31859;55.030;-1.550;2022-08-19T00:37:47;99948.11;;;16.62;100.00
46127;BME280;31859;55.030;-1.550;2022-08-19T00:40:14;99949.36;;;16.38;100.00
46127;BME280;31859;55.030;-1.550;2022-08-19T00:42:42;99950.40;;;16.19;100.00
46127;BME280;31859;55.030;-1.550;2022-08-19T00:45:12;99947.60;;;15.98;100.00
46127;BME280;31859;55.030;-1.550;2022-08-19T00:47:40;99953.35;;;16.41;100.00
46127;BME280;31859;55.030;-1.550;2022-08-19T00:50:10;99953.61;;;16.46;100.00
46127;BME280;31859;55.030;-1.550;2022-08-19T00:52:42;99953.95;;;16.32;100.00
46127;BME280;31859;55.030;-1.550;2022-08-19T00:55:14;99952.25;;;16.23;100.00
46127;BME280;31859;55.030;-1.550;2022-08-19T00:57:45;99949.40;;;16.25;100.00
46127;BME280;31859;55.030;-1.550;2022-08-19T01:00:18;99948.43;;;16.19;100.00
46127;BME280;31859;55.030;-1.550;2022-08-19T01:02:46;99948.66;;;16.47;100.00
46127;BME280;31859;55.030;-1.550;2022-08-19T01:05:17;99950.99;;;16.16;100.00
46127;BME280;31859;55.030;-1.550;2022-08-19T01:07:45;99950.22;;;15.61;100.00
46127;BME280;31859;55.030;-1.550;2022-08-19T01:10:15;99951.33;;;15.89;100.00
46127;BME280;31859;55.030;-1.550;2022-08-19T01:12:43;99953.59;;;15.38;100.00
46127;BME280;31859;55.030;-1.550;2022-08-19T01:15:13;99954.48;;;14.94;100.00
46127;BME280;31859;55.030;-1.550;2022-08-19T01:17:42;99954.46;;;14.99;100.00
46127;BME280;31859;55.030;-1.550;2022-08-19T01:20:13;99956.53;;;14.93;100.00
46127;BME280;31859;55.030;-1.550;2022-08-19T01:22:44;99956.49;;;14.94;100.00
46127;BME280;31859;55.030;-1.550;2022-08-19T01:25:14;99957.59;;;14.86;100.00
46127;BME280;31859;55.030;-1.550;2022-08-19T01:27:43;99955.24;;;14.86;100.00
46127;BME280;31859;55.030;-1.550;2022-08-19T01:30:12;99960.53;;;14.89;100.00
46127;BME280;31859;55.030;-1.550;2022-08-19T01:32:40;99960.88;;;14.83;100.00
46127;BME280;31859;55.030;-1.550;2022-08-19T01:35:08;99963.29;;;13.85;100.00
46127;BME280;31859;55.030;-1.550;2022-08-19T01:37:46;99962.55;;;13.76;100.00
46127;BME280;31859;55.030;-1.550;2022-08-19T01:40:13;99963.68;;;14.44;100.00
46127;BME280;31859;55.030;-1.550;2022-08-19T01:42:41;99960.40;;;13.46;100.00
46127;BME280;31859;55.030;-1.550;2022-08-19T01:45:09;99954.91;;;13.47;100.00
46127;BME280;31859;55.030;-1.550;2022-08-19T01:47:37;99956.99;;;13.38;100.00
46127;BME280;31859;55.030;-1.550;2022-08-19T01:50:07;99960.39;;;13.38;100.00
46127;BME280;31859;55.030;-1.550;2022-08-19T01:52:35;99969.56;;;13.78;100.00
46127;BME280;31859;55.030;-1.550;2022-08-19T01:55:04;99974.42;;;14.22;100.00
46127;BME280;31859;55.030;-1.550;2022-08-19T01:57:32;99975.43;;;13.92;100.00
46127;BME280;31859;55.030;-1.550;2022-08-19T02:00:00;99981.07;;;13.38;100.00
46127;BME280;31859;55.030;-1.550;2022-08-19T02:02:28;99983.67;;;13.71;100.00
46127;BME280;31859;55.030;-1.550;2022-08-19T02:04:55;99981.28;;;13.69;100.00
46127;BME280;31859;55.030;-1.550;2022-08-19T02:07:23;99988.42;;;14.53;100.00
46127;BME280;31859;55.030;-1.550;2022-08-19T02:09:50;99994.11;;;14.72;100.00
46127;BME280;31859;55.030;-1.550;2022-08-19T02:12:16;100000.90;;;14.99;100.00
46127;BME280;31859;55.030;-1.550;2022-08-19T02:14:44;100000.91;;;15.55;100.00
46127;BME280;31859;55.030;-1.550;2022-08-19T02:17:11;100001.22;;;15.49;100.00
46127;BME280;31859;55.030;-1.550;2022-08-19T02:19:38;100006.77;;;15.72;100.00
46127;BME280;31859;55.030;-1.550;2022-08-19T02:22:05;100006.38;;;15.72;100.00
46127;BME280;31859;55.030;-1.550;2022-08-19T02:24:32;100013.41;;;15.51;100.00
46127;BME280;31859;55.030;-1.550;2022-08-19T02:26:59;100017.00;;;15.03;100.00
46127;BME280;31859;55.030;-1.550;2022-08-19T02:29:26;100019.18;;;14.76;100.00
46127;BME280;31859;55.030;-1.550;2022-08-19T02:31:53;100021.80;;;14.87;100.00
46127;BME280;31859;55.030;-1.550;2022-08-19T02:34:20;100028.38;;;15.04;100.00
46127;BME280;31859;55.030;-1.550;2022-08-19T02:36:47;100029.12;;;14.43;100.00
46127;BME280;31859;55.030;-1.550;2022-08-19T02:39:14;100031.36;;;14.66;100.00
46127;BME280;31859;55.030;-1.550;2022-08-19T02:41:42;100031.97;;;14.42;100.00
46127;BME280;31859;55.030;-1.550;2022-08-19T02:44:09;100030.56;;;14.66;100.00
46127;BME280;31859;55.030;-1.550;2022-08-19T02:46:36;100029.87;;;14.72;100.00
46127;BME280;31859;55.030;-1.550;2022-08-19T02:49:06;100031.41;;;14.52;100.00
46127;BME280;31859;55.030;-1.550;2022-08-19T02:51:36;100033.24;;;13.92;100.00
46127;BME280;31859;55.030;-1.550;2022-08-19T02:54:04;100032.61;;;14.17;100.00
46127;BME280;31859;55.030;-1.550;2022-08-19T02:56:34;100032.92;;;13.77;100.00
46127;BME280;31859;55.030;-1.550;2022-08-19T02:59:01;100030.59;;;14.13;100.00
46127;BME280;31859;55.030;-1.550;2022-08-19T03:01:31;100033.93;;;14.06;100.00
46127;BME280;31859;55.030;-1.550;2022-08-19T03:04:01;100036.79;;;14.15;100.00
46127;BME280;31859;55.030;-1.550;2022-08-19T03:06:29;100034.26;;;13.50;100.00
46127;BME280;31859;55.030;-1.550;2022-08-19T03:08:56;100035.21;;;13.82;100.00
46127;BME280;31859;55.030;-1.550;2022-08-19T03:11:26;100034.29;;;13.53;100.00
46127;BME280;31859;55.030;-1.550;2022-08-19T03:13:53;100038.80;;;13.66;100.00
46127;BME280;31859;55.030;-1.550;2022-08-19T03:16:24;100034.16;;;13.10;100.00
46127;BME280;31859;55.030;-1.550;2022-08-19T03:18:52;100031.25;;;12.85;100.00
46127;BME280;31859;55.030;-1.550;2022-08-19T03:21:22;100032.70;;;11.96;100.00
46127;BME280;31859;55.030;-1.550;2022-08-19T03:23:49;100032.73;;;12.83;100.00
46127;BME280;31859;55.030;-1.550;2022-08-19T03:26:16;100037.29;;;12.95;100.00
46127;BME280;31859;55.030;-1.550;2022-08-19T03:28:44;100035.40;;;12.46;100.00
46127;BME280;31859;55.030;-1.550;2022-08-19T03:31:13;100038.82;;;12.66;100.00
46127;BME280;31859;55.030;-1.550;2022-08-19T03:33:40;100044.02;;;13.14;100.00
46127;BME280;31859;55.030;-1.550;2022-08-19T03:36:09;100046.30;;;13.40;100.00
46127;BME280;31859;55.030;-1.550;2022-08-19T03:38:40;100048.53;;;13.06;100.00
46127;BME280;31859;55.030;-1.550;2022-08-19T03:41:12;100048.08;;;13.09;100.00
46127;BME280;31859;55.030;-1.550;2022-08-19T03:43:40;100048.73;;;11.55;100.00
46127;BME280;31859;55.030;-1.550;2022-08-19T03:46:12;100046.58;;;11.69;100.00
46127;BME280;31859;55.030;-1.550;2022-08-19T03:48:41;100047.09;;;11.66;100.00
46127;BME280;31859;55.030;-1.550;2022-08-19T03:51:16;100048.54;;;12.53;100.00
46127;BME280;31859;55.030;-1.550;2022-08-19T03:53:44;100050.25;;;11.85;100.00
46127;BME280;31859;55.030;-1.550;2022-08-19T03:56:11;100047.65;;;11.65;100.00
46127;BME280;31859;55.030;-1.550;2022-08-19T03:58:38;100042.93;;;12.34;100.00
46127;BME280;31859;55.030;-1.550;2022-08-19T04:01:09;100043.03;;;11.90;100.00
46127;BME280;31859;55.030;-1.550;2022-08-19T04:03:37;100041.04;;;11.21;100.00
46127;BME280;31859;55.030;-1.550;2022-08-19T04:06:10;100045.98;;;10.82;100.00
46127;BME280;31859;55.030;-1.550;2022-08-19T04:08:38;100046.99;;;11.23;100.00
46127;BME280;31859;55.030;-1.550;2022-08-19T04:11:07;100046.46;;;11.54;100.00
46127;BME280;31859;55.030;-1.550;2022-08-19T04:13:35;100049.44;;;11.18;100.00
46127;BME280;31859;55.030;-1.550;2022-08-19T04:16:05;100051.12;;;10.97;100.00
46127;BME280;31859;55.030;-1.550;2022-08-19T04:18:33;100055.35;;;11.11;100.00
46127;BME280;31859;55.030;-1.550;2022-08-19T04:21:00;100054.41;;;10.27;100.00
46127;BME280;31859;55.030;-1.550;2022-08-19T04:23:28;100057.91;;;11.07;100.00
46127;BME280;31859;55.030;-1.550;2022-08-19T04:25:56;100059.63;;;10.58;100.00
46127;BME280;31859;55.030;-1.550;2022-08-19T04:28:24;100062.89;;;10.96;100.00
46127;BME280;31859;55.030;-1.550;2022-08-19T04:30:53;100065.39;;;11.24;100.00
46127;BME280;31859;55.030;-1.550;2022-08-19T04:33:23;100069.25;;;11.11;100.00
46127;BME280;31859;55.030;-1.550;2022-08-19T04:35:52;100073.11;;;11.66;100.00
46127;BME280;31859;55.030;-1.550;2022-08-19T04:38:21;100082.61;;;11.43;100.00
46127;BME280;31859;55.030;-1.550;2022-08-19T04:40:50;100089.57;;;11.65;100.00
46127;BME280;31859;55.030;-1.550;2022-08-19T04:43:18;100096.08;;;12.05;100.00
46127;BME280;31859;55.030;-1.550;2022-08-19T04:45:46;100098.92;;;11.74;100.00
46127;BME280;31859;55.030;-1.550;2022-08-19T04:48:13;100101.10;;;11.93;100.00
46127;BME280;31859;55.030;-1.550;2022-08-19T04:50:42;100101.35;;;12.63;100.00
46127;BME280;31859;55.030;-1.550;2022-08-19T04:53:10;100102.40;;;12.81;100.00
46127;BME280;31859;55.030;-1.550;2022-08-19T04:55:40;100109.18;;;12.67;100.00
46127;BME280;31859;55.030;-1.550;2022-08-19T04:58:08;100110.45;;;13.25;100.00
46127;BME280;31859;55.030;-1.550;2022-08-19T05:00:38;100114.14;;;12.71;100.00
46127;BME280;31859;55.030;-1.550;2022-08-19T05:03:05;100115.81;;;13.55;100.00
46127;BME280;31859;55.030;-1.550;2022-08-19T05:05:32;100115.81;;;13.04;100.00
46127;BME280;31859;55.030;-1.550;2022-08-19T05:07:59;100115.75;;;12.31;100.00
46127;BME280;31859;55.030;-1.550;2022-08-19T05:10:26;100117.70;;;12.33;100.00
46127;BME280;31859;55.030;-1.550;2022-08-19T05:12:53;100124.35;;;11.88;100.00
46127;BME280;31859;55.030;-1.550;2022-08-19T05:15:21;100121.52;;;11.27;100.00
46127;BME280;31859;55.030;-1.550;2022-08-19T05:17:48;100116.15;;;11.36;100.00
46127;BME280;31859;55.030;-1.550;2022-08-19T05:20:15;100104.39;;;10.60;100.00
46127;BME280;31859;55.030;-1.550;2022-08-19T05:22:45;100107.40;;;10.99;100.00
46127;BME280;31859;55.030;-1.550;2022-08-19T05:25:15;100106.73;;;10.93;100.00
46127;BME280;31859;55.030;-1.550;2022-08-19T05:27:43;100107.26;;;11.25;100.00
46127;BME280;31859;55.030;-1.550;2022-08-19T05:30:12;100105.50;;;11.55;100.00
46127;BME280;31859;55.030;-1.550;2022-08-19T05:32:40;100106.69;;;11.83;100.00
46127;BME280;31859;55.030;-1.550;2022-08-19T05:35:08;100115.06;;;11.63;100.00
46127;BME280;31859;55.030;-1.550;2022-08-19T05:37:35;100116.28;;;12.06;100.00
46127;BME280;31859;55.030;-1.550;2022-08-19T05:40:03;100121.18;;;12.66;100.00
46127;BME280;31859;55.030;-1.550;2022-08-19T05:42:31;100123.51;;;13.05;100.00
46127;BME280;31859;55.030;-1.550;2022-08-19T05:44:58;100125.65;;;13.15;100.00
46127;BME280;31859;55.030;-1.550;2022-08-19T05:47:25;100130.16;;;13.48;100.00
46127;BME280;31859;55.030;-1.550;2022-08-19T05:49:53;100133.73;;;13.30;100.00
46127;BME280;31859;55.030;-1.550;2022-08-19T05:52:20;100130.93;;;13.15;100.00
46127;BME280;31859;55.030;-1.550;2022-08-19T05:54:47;100133.27;;;13.78;100.00
46127;BME280;31859;55.030;-1.550;2022-08-19T05:57:14;100135.90;;;13.21;100.00
46127;BME280;31859;55.030;-1.550;2022-08-19T05:59:41;100133.48;;;13.56;100.00
46127;BME280;31859;55.030;-1.550;2022-08-19T06:02:08;100136.94;;;13.29;100.00
46127;BME280;31859;55.030;-1.550;2022-08-19T06:04:35;100136.60;;;13.84;100.00
46127;BME280;31859;55.030;-1.550;2022-08-19T06:07:02;100138.26;;;13.42;100.00
46127;BME280;31859;55.030;-1.550;2022-08-19T06:09:29;100136.91;;;12.82;100.00
46127;BME280;31859;55.030;-1.550;2022-08-19T06:11:59;100135.10;;;12.16;100.00
46127;BME280;31859;55.030;-1.550;2022-08-19T06:14:30;100132.53;;;12.24;100.00
46127;BME280;31859;55.030;-1.550;2022-08-19T06:16:58;100129.76;;;12.33;100.00
46127;BME280;31859;55.030;-1.550;2022-08-19T06:19:26;100126.95;;;12.22;100.00
46127;BME280;31859;55.030;-1.550;2022-08-19T06:21:53;100126.45;;;12.20;100.00
46127;BME280;31859;55.030;-1.550;2022-08-19T06:24:23;100130.09;;;12.17;100.00
46127;BME280;31859;55.030;-1.550;2022-08-19T06:26:52;100131.12;;;11.76;100.00
46127;BME280;31859;55.030;-1.550;2022-08-19T06:29:23;100133.58;;;12.22;100.00
46127;BME280;31859;55.030;-1.550;2022-08-19T06:31:53;100140.21;;;12.42;100.00
46127;BME280;31859;55.030;-1.550;2022-08-19T06:34:21;100146.51;;;12.49;100.00
46127;BME280;31859;55.030;-1.550;2022-08-19T06:36:50;100146.99;;;13.16;100.00
46127;BME280;31859;55.030;-1.550;2022-08-19T06:39:22;100155.95;;;12.72;100.00
46127;BME280;31859;55.030;-1.550;2022-08-19T06:41:52;100156.33;;;13.39;100.00
46127;BME280;31859;55.030;-1.550;2022-08-19T06:44:22;100156.24;;;12.99;100.00
46127;BME280;31859;55.030;-1.550;2022-08-19T06:46:51;100152.62;;;13.02;100.00
46127;BME280;31859;55.030;-1.550;2022-08-19T06:49:18;100153.52;;;13.17;100.00
46127;BME280;31859;55.030;-1.550;2022-08-19T06:51:48;100154.26;;;12.73;100.00
46127;BME280;31859;55.030;-1.550;2022-08-19T06:54:17;100153.99;;;13.24;100.00
46127;BME280;31859;55.030;-1.550;2022-08-19T06:56:44;100159.25;;;13.03;100.00
46127;BME280;31859;55.030;-1.550;2022-08-19T06:59:14;100163.11;;;13.23;100.00
46127;BME280;31859;55.030;-1.550;2022-08-19T07:01:46;100167.18;;;13.77;100.00
46127;BME280;31859;55.030;-1.550;2022-08-19T07:04:16;100168.98;;;13.70;100.00
46127;BME280;31859;55.030;-1.550;2022-08-19T07:06:44;100169.59;;;13.81;100.00
46127;BME280;31859;55.030;-1.550;2022-08-19T07:09:13;100172.70;;;13.73;100.00
46127;BME280;31859;55.030;-1.550;2022-08-19T07:11:45;100171.66;;;13.52;100.00
46127;BME280;31859;55.030;-1.550;2022-08-19T07:14:12;100162.09;;;13.23;100.00
46127;BME280;31859;55.030;-1.550;2022-08-19T07:16:40;100151.91;;;13.69;100.00
46127;BME280;31859;55.030;-1.550;2022-08-19T07:19:07;100150.11;;;13.61;100.00
46127;BME280;31859;55.030;-1.550;2022-08-19T07:21:35;100143.58;;;13.03;100.00
46127;BME280;31859;55.030;-1.550;2022-08-19T07:24:03;100150.47;;;13.60;100.00
46127;BME280;31859;55.030;-1.550;2022-08-19T07:26:35;100155.52;;;13.78;100.00
46127;BME280;31859;55.030;-1.550;2022-08-19T07:29:04;100161.10;;;13.82;100.00
46127;BME280;31859;55.030;-1.550;2022-08-19T07:31:32;100166.04;;;13.75;100.00
46127;BME280;31859;55.030;-1.550;2022-08-19T07:33:59;100175.64;;;14.09;100.00
46127;BME280;31859;55.030;-1.550;2022-08-19T07:36:28;100177.78;;;14.51;100.00
46127;BME280;31859;55.030;-1.550;2022-08-19T07:38:55;100187.90;;;14.76;100.00
46127;BME280;31859;55.030;-1.550;2022-08-19T07:41:24;100188.82;;;14.70;100.00
46127;BME280;31859;55.030;-1.550;2022-08-19T07:43:52;100188.90;;;15.59;100.00
46127;BME280;31859;55.030;-1.550;2022-08-19T07:46:19;100189.04;;;15.38;100.00
46127;BME280;31859;55.030;-1.550;2022-08-19T07:48:48;100183.38;;;15.15;100.00
46127;BME280;31859;55.030;-1.550;2022-08-19T07:51:18;100185.60;;;14.57;100.00
46127;BME280;31859;55.030;-1.550;2022-08-19T07:53:47;100188.22;;;15.64;100.00
46127;BME280;31859;55.030;-1.550;2022-08-19T07:56:15;100186.92;;;16.56;100.00
46127;BME280;31859;55.030;-1.550;2022-08-19T07:58:46;100192.81;;;15.85;100.00
46127;BME280;31859;55.030;-1.550;2022-08-19T08:01:17;100192.61;;;15.97;100.00
46127;BME280;31859;55.030;-1.550;2022-08-19T08:03:45;100191.81;;;15.82;100.00
46127;BME280;31859;55.030;-1.550;2022-08-19T08:06:13;100187.86;;;15.82;100.00
46127;BME280;31859;55.030;-1.550;2022-08-19T08:08:41;100186.14;;;15.46;100.00
46127;BME280;31859;55.030;-1.550;2022-08-19T08:11:08;100192.82;;;15.75;100.00
46127;BME280;31859;55.030;-1.550;2022-08-19T08:13:36;100185.35;;;15.74;100.00
46127;BME280;31859;55.030;-1.550;2022-08-19T08:16:04;100193.00;;;16.54;100.00
46127;BME280;31859;55.030;-1.550;2022-08-19T08:18:31;100194.63;;;15.99;100.00
46127;BME280;31859;55.030;-1.550;2022-08-19T08:20:59;100197.31;;;16.64;100.00
46127;BME280;31859;55.030;-1.550;2022-08-19T08:23:26;100204.03;;;16.63;100.00
46127;BME280;31859;55.030;-1.550;2022-08-19T08:25:54;100199.71;;;15.37;100.00
46127;BME280;31859;55.030;-1.550;2022-08-19T08:28:22;100211.40;;;16.40;100.00
46127;BME280;31859;55.030;-1.550;2022-08-19T08:30:50;100216.37;;;17.40;100.00
46127;BME280;31859;55.030;-1.550;2022-08-19T08:33:19;100219.25;;;16.30;100.00
46127;BME280;31859;55.030;-1.550;2022-08-19T08:35:47;100214.08;;;15.87;100.00
46127;BME280;31859;55.030;-1.550;2022-08-19T08:38:15;100214.90;;;16.54;100.00
46127;BME280;31859;55.030;-1.550;2022-08-19T08:40:44;100216.67;;;16.09;100.00
46127;BME280;31859;55.030;-1.550;2022-08-19T08:43:22;100213.61;;;15.88;100.00
46127;BME280;31859;55.030;-1.550;2022-08-19T08:45:55;100211.74;;;16.19;100.00
46127;BME280;31859;55.030;-1.550;2022-08-19T08:48:32;100213.06;;;16.15;100.00
46127;BME280;31859;55.030;-1.550;2022-08-19T08:51:04;100206.73;;;16.24;100.00
46127;BME280;31859;55.030;-1.550;2022-08-19T08:53:32;100204.56;;;16.40;100.00
46127;BME280;31859;55.030;-1.550;2022-08-19T08:56:04;100197.37;;;16.47;100.00
46127;BME280;31859;55.030;-1.550;2022-08-19T08:58:44;100204.56;;;16.98;100.00
46127;BME280;31859;55.030;-1.550;2022-08-19T09:01:13;100210.58;;;16.80;100.00
46127;BME280;31859;55.030;-1.550;2022-08-19T09:03:41;100213.34;;;16.53;100.00
46127;BME280;31859;55.030;-1.550;2022-08-19T09:06:14;100220.40;;;16.92;100.00
46127;BME280;31859;55.030;-1.550;2022-08-19T09:08:48;100222.95;;;16.94;100.00
46127;BME280;31859;55.030;-1.550;2022-08-19T09:11:23;100223.86;;;18.07;100.00
46127;BME280;31859;55.030;-1.550;2022-08-19T09:14:06;100223.54;;;18.32;100.00
46127;BME280;31859;55.030;-1.550;2022-08-19T09:16:36;100220.20;;;18.48;100.00
46127;BME280;31859;55.030;-1.550;2022-08-19T09:19:04;100223.04;;;18.42;100.00
46127;BME280;31859;55.030;-1.550;2022-08-19T09:21:33;100228.62;;;17.49;100.00
46127;BME280;31859;55.030;-1.550;2022-08-19T09:24:00;100227.75;;;16.90;100.00
46127;BME280;31859;55.030;-1.550;2022-08-19T09:26:27;100226.02;;;16.81;100.00
46127;BME280;31859;55.030;-1.550;2022-08-19T09:28:54;100217.88;;;16.16;100.00
46127;BME280;31859;55.030;-1.550;2022-08-19T09:31:24;100218.70;;;16.92;100.00
46127;BME280;31859;55.030;-1.550;2022-08-19T09:33:53;100212.11;;;17.06;100.00
46127;BME280;31859;55.030;-1.550;2022-08-19T09:36:22;100216.86;;;17.40;100.00
46127;BME280;31859;55.030;-1.550;2022-08-19T09:38:50;100211.67;;;17.24;100.00
46127;BME280;31859;55.030;-1.550;2022-08-19T09:41:19;100209.66;;;18.10;100.00
46127;BME280;31859;55.030;-1.550;2022-08-19T09:43:49;100199.70;;;18.24;100.00
46127;BME280;31859;55.030;-1.550;2022-08-19T09:46:17;100207.93;;;17.59;100.00
46127;BME280;31859;55.030;-1.550;2022-08-19T09:48:45;100209.22;;;17.63;100.00
46127;BME280;31859;55.030;-1.550;2022-08-19T09:51:14;100220.35;;;17.47;100.00
46127;BME280;31859;55.030;-1.550;2022-08-19T09:53:44;100215.07;;;16.89;100.00
46127;BME280;31859;55.030;-1.550;2022-08-19T09:56:12;100214.57;;;17.33;100.00
46127;BME280;31859;55.030;-1.550;2022-08-19T09:58:40;100218.00;;;17.06;100.00
46127;BME280;31859;55.030;-1.550;2022-08-19T10:01:08;100215.65;;;17.32;100.00
46127;BME280;31859;55.030;-1.550;2022-08-19T10:03:36;100220.47;;;17.65;100.00
46127;BME280;31859;55.030;-1.550;2022-08-19T10:06:05;100214.37;;;18.22;100.00
46127;BME280;31859;55.030;-1.550;2022-08-19T10:08:34;100212.22;;;16.93;100.00
46127;BME280;31859;55.030;-1.550;2022-08-19T10:11:04;100214.60;;;17.31;100.00
46127;BME280;31859;55.030;-1.550;2022-08-19T10:13:32;100212.98;;;18.09;100.00
46127;BME280;31859;55.030;-1.550;2022-08-19T10:16:04;100222.20;;;18.40;100.00
46127;BME280;31859;55.030;-1.550;2022-08-19T10:18:31;100218.89;;;18.40;100.00
46127;BME280;31859;55.030;-1.550;2022-08-19T10:21:05;100213.57;;;18.73;100.00
46127;BME280;31859;55.030;-1.550;2022-08-19T10:23:33;100211.97;;;18.84;100.00
46127;BME280;31859;55.030;-1.550;2022-08-19T10:26:01;100208.93;;;18.36;100.00
46127;BME280;31859;55.030;-1.550;2022-08-19T10:28:28;100208.27;;;19.02;100.00
46127;BME280;31859;55.030;-1.550;2022-08-19T10:30:55;100203.77;;;18.87;100.00
46127;BME280;31859;55.030;-1.550;2022-08-19T10:33:22;100208.32;;;18.05;100.00
46127;BME280;31859;55.030;-1.550;2022-08-19T10:35:50;100205.59;;;18.01;100.00
46127;BME280;31859;55.030;-1.550;2022-08-19T10:38:25;100198.30;;;18.77;100.00
46127;BME280;31859;55.030;-1.550;2022-08-19T10:40:52;100192.42;;;18.55;100.00
46127;BME280;31859;55.030;-1.550;2022-08-19T10:43:19;100190.11;;;19.88;100.00
46127;BME280;31859;55.030;-1.550;2022-08-19T10:45:51;100185.15;;;21.07;100.00
46127;BME280;31859;55.030;-1.550;2022-08-19T10:48:18;100195.12;;;20.89;96.10
46127;BME280;31859;55.030;-1.550;2022-08-19T10:50:46;100192.42;;;19.92;100.00
46127;BME280;31859;55.030;-1.550;2022-08-19T10:53:13;100199.17;;;20.61;100.00
46127;BME280;31859;55.030;-1.550;2022-08-19T10:55:39;100196.27;;;20.65;89.75
46127;BME280;31859;55.030;-1.550;2022-08-19T10:58:13;100190.70;;;19.94;95.27
46127;BME280;31859;55.030;-1.550;2022-08-19T11:00:41;100191.14;;;18.40;100.00
46127;BME280;31859;55.030;-1.550;2022-08-19T11:03:08;100195.65;;;18.32;100.00
46127;BME280;31859;55.030;-1.550;2022-08-19T11:05:35;100199.80;;;17.97;100.00
46127;BME280;31859;55.030;-1.550;2022-08-19T11:08:03;100198.47;;;18.53;100.00
46127;BME280;31859;55.030;-1.550;2022-08-19T11:10:30;100200.81;;;19.15;100.00
46127;BME280;31859;55.030;-1.550;2022-08-19T11:12:57;100206.28;;;18.44;100.00
46127;BME280;31859;55.030;-1.550;2022-08-19T11:15:25;100198.68;;;18.85;100.00
46127;BME280;31859;55.030;-1.550;2022-08-19T11:17:52;100206.63;;;18.17;100.00
46127;BME280;31859;55.030;-1.550;2022-08-19T11:20:19;100208.17;;;17.85;100.00
46127;BME280;31859;55.030;-1.550;2022-08-19T11:22:47;100213.88;;;17.37;100.00
46127;BME280;31859;55.030;-1.550;2022-08-19T11:25:14;100203.24;;;17.94;100.00
46127;BME280;31859;55.030;-1.550;2022-08-19T11:27:42;100201.97;;;18.02;100.00
46127;BME280;31859;55.030;-1.550;2022-08-19T11:30:12;100195.73;;;18.37;100.00
46127;BME280;31859;55.030;-1.550;2022-08-19T11:32:45;100200.77;;;17.95;100.00
46127;BME280;31859;55.030;-1.550;2022-08-19T11:35:13;100200.05;;;17.30;100.00
46127;BME280;31859;55.030;-1.550;2022-08-19T11:37:40;100191.11;;;16.51;100.00
46127;BME280;31859;55.030;-1.550;2022-08-19T11:40:08;100196.92;;;17.10;100.00
46127;BME280;31859;55.030;-1.550;2022-08-19T11:42:36;100194.14;;;17.53;100.00
46127;BME280;31859;55.030;-1.550;2022-08-19T11:45:04;100190.59;;;18.17;100.00
46127;BME280;31859;55.030;-1.550;2022-08-19T11:47:31;100190.89;;;18.44;100.00
46127;BME280;31859;55.030;-1.550;2022-08-19T11:49:58;100192.44;;;18.33;100.00
46127;BME280;31859;55.030;-1.550;2022-08-19T11:52:25;100191.96;;;18.08;100.00
46127;BME280;31859;55.030;-1.550;2022-08-19T11:54:52;100194.89;;;18.88;100.00
46127;BME280;31859;55.030;-1.550;2022-08-19T11:57:19;100200.47;;;18.93;100.00
46127;BME280;31859;55.030;-1.550;2022-08-19T11:59:49;100197.41;;;19.29;100.00
46127;BME280;31859;55.030;-1.550;2022-08-19T12:02:17;100194.54;;;19.29;100.00
46127;BME280;31859;55.030;-1.550;2022-08-19T12:04:45;100200.92;;;18.23;100.00
46127;BME280;31859;55.030;-1.550;2022-08-19T12:07:12;100204.71;;;18.04;100.00
46127;BME280;31859;55.030;-1.550;2022-08-19T12:09:39;100199.95;;;18.49;100.00
46127;BME280;31859;55.030;-1.550;2022-08-19T12:12:08;100202.35;;;16.90;100.00
46127;BME280;31859;55.030;-1.550;2022-08-19T12:14:35;100208.77;;;16.81;100.00
46127;BME280;31859;55.030;-1.550;2022-08-19T12:17:03;100208.71;;;17.24;100.00
46127;BME280;31859;55.030;-1.550;2022-08-19T12:19:29;100200.04;;;18.08;100.00
46127;BME280;31859;55.030;-1.550;2022-08-19T12:21:59;100191.12;;;20.88;100.00
46127;BME280;31859;55.030;-1.550;2022-08-19T12:24:26;100202.65;;;19.35;100.00
46127;BME280;31859;55.030;-1.550;2022-08-19T12:26:54;100189.38;;;21.58;95.91
46127;BME280;31859;55.030;-1.550;2022-08-19T12:29:21;100196.13;;;23.04;89.20
46127;BME280;31859;55.030;-1.550;2022-08-19T12:31:49;100189.36;;;22.97;76.16
46127;BME280;31859;55.030;-1.550;2022-08-19T12:34:16;100188.96;;;20.50;90.70
46127;BME280;31859;55.030;-1.550;2022-08-19T12:36:43;100192.42;;;21.39;89.63
46127;BME280;31859;55.030;-1.550;2022-08-19T12:39:10;100194.08;;;19.22;100.00